Time;durP1;ratioP1;P1;durP2;ratioP2;P2;SDS_P1;SDS_P2;PMS_P1;PMS_P2;Temp;Humidity;BMP_temperature;BMP_pressure;BME280_temperature;BME280_humidity;BME280_pressure;Samples;Min_cycle;Max_cycle;Signal;HPM_P1;HPM_P2
2022/05/24 00:04:05;;;;;;;2.47;1.42;;;18.80;91.30;;;;;;12777420;23;20181;-85
2022/05/24 00:09:08;;;;;;;2.15;1.50;;;19.30;91.20;;;;;;12794386;23;20188;-85
2022/05/24 00:14:10;;;;;;;1.70;1.60;;;19.40;90.70;;;;;;12776780;23;20188;-85
2022/05/24 00:19:14;;;;;;;1.60;1.48;;;19.50;90.50;;;;;;12795277;23;20203;-86
2022/05/24 00:24:16;;;;;;;5.15;3.20;;;19.00;90.70;;;;;;12747831;23;20196;-85
2022/05/24 00:29:19;;;;;;;1.73;1.30;;;18.90;88.30;;;;;;12733907;23;20263;-85
2022/05/24 00:34:21;;;;;;;2.63;2.10;;;19.00;90.70;;;;;;12737414;23;20504;-85
2022/05/24 00:39:23;;;;;;;2.47;2.25;;;19.00;90.50;;;;;;12739136;23;20196;-85
2022/05/24 00:44:43;;;;;;;1.40;1.20;;;19.40;89.60;;;;;;12745948;23;20176;-85
2022/05/24 00:49:51;;;;;;;4.82;3.63;;;19.40;90.50;;;;;;12764032;23;20242;-85
2022/05/24 00:54:54;;;;;;;1.67;1.58;;;19.30;87.60;;;;;;12763067;23;20169;-85
2022/05/24 01:00:06;;;;;;;2.42;1.50;;;19.10;90.20;;;;;;12749338;23;20200;-85
2022/05/24 01:05:13;;;;;;;3.15;1.95;;;19.60;90.30;;;;;;12761299;23;20575;-85
2022/05/24 01:10:29;;;;;;;5.25;2.80;;;19.00;90.30;;;;;;12741887;23;20184;-85
2022/05/24 01:15:32;;;;;;;5.85;4.22;;;18.40;90.40;;;;;;12750554;23;20168;-85
2022/05/24 01:20:35;;;;;;;3.05;1.98;;;18.40;90.70;;;;;;12761711;23;20293;-85
2022/05/24 01:26:03;;;;;;;1.33;1.20;;;18.80;91.10;;;;;;12737412;23;20235;-86
2022/05/24 01:31:06;;;;;;;2.10;1.90;;;18.90;86.10;;;;;;12743416;23;20539;-85
2022/05/24 01:36:10;;;;;;;2.08;1.65;;;19.30;90.20;;;;;;12737625;23;20165;-85
2022/05/24 01:41:20;;;;;;;1.33;1.23;;;18.80;90.90;;;;;;12760396;23;20180;-85
2022/05/24 01:46:30;;;;;;;2.65;1.40;;;19.10;90.80;;;;;;12739917;23;20200;-85
2022/05/24 01:51:38;;;;;;;4.50;3.35;;;18.70;91.20;;;;;;12759575;23;20232;-85
2022/05/24 01:56:46;;;;;;;2.15;1.92;;;19.10;88.70;;;;;;12754156;23;20196;-85
2022/05/24 02:01:52;;;;;;;1.77;1.63;;;18.90;90.10;;;;;;12739637;23;20196;-85
2022/05/24 02:07:11;;;;;;;1.60;1.50;;;18.80;88.90;;;;;;12751716;23;20165;-85
2022/05/24 02:12:21;;;;;;;2.90;1.80;;;18.90;90.90;;;;;;12734546;23;20164;-85
2022/05/24 02:17:29;;;;;;;2.45;2.25;;;19.40;89.80;;;;;;12730583;23;20623;-85
2022/05/24 02:22:31;;;;;;;2.35;1.92;;;19.10;89.00;;;;;;12738268;23;20695;-85
2022/05/24 02:27:40;;;;;;;2.45;2.10;;;19.00;89.30;;;;;;12706365;23;20247;-84
2022/05/24 02:32:42;;;;;;;3.67;3.33;;;19.30;90.10;;;;;;12731708;23;20227;-85
2022/05/24 02:37:45;;;;;;;8.88;4.55;;;18.90;89.20;;;;;;12749098;23;20200;-84
2022/05/24 02:42:47;;;;;;;3.85;3.28;;;18.80;87.90;;;;;;12731215;23;20169;-84
2022/05/24 02:47:50;;;;;;;2.85;2.22;;;18.80;89.00;;;;;;12731126;23;20188;-85
2022/05/24 02:52:53;;;;;;;3.20;2.90;;;18.90;90.70;;;;;;12730899;23;20195;-85
2022/05/24 02:58:00;;;;;;;1.70;1.27;;;18.90;89.60;;;;;;12728718;23;20242;-85
2022/05/24 03:03:03;;;;;;;4.88;3.72;;;19.30;90.30;;;;;;12746817;23;20223;-85
2022/05/24 03:18:48;;;;;;;4.75;3.35;;;19.40;88.30;;;;;;12730537;23;20251;-85
2022/05/24 03:23:51;;;;;;;5.15;4.65;;;18.90;86.90;;;;;;12728228;23;20294;-85
2022/05/24 03:28:54;;;;;;;3.00;2.47;;;18.90;88.10;;;;;;12729057;23;20746;-85
2022/05/24 03:33:57;;;;;;;2.13;1.63;;;18.60;90.30;;;;;;12730793;23;20196;-85
2022/05/24 03:39:02;;;;;;;4.32;3.28;;;18.80;90.10;;;;;;12746904;23;20200;-84
2022/05/24 03:44:05;;;;;;;1.80;1.70;;;18.30;90.00;;;;;;12730828;23;20176;-84
2022/05/24 03:49:09;;;;;;;5.13;3.63;;;18.20;91.70;;;;;;12727922;23;20540;-85
2022/05/24 03:54:12;;;;;;;3.38;2.72;;;18.40;88.50;;;;;;12729841;23;20196;-85
2022/05/24 03:59:15;;;;;;;2.08;1.88;;;18.20;91.00;;;;;;12729565;23;20203;-85
2022/05/24 04:04:17;;;;;;;1.80;1.50;;;19.00;89.20;;;;;;12728993;23;20180;-85
2022/05/24 04:09:19;;;;;;;9.50;4.75;;;19.10;90.60;;;;;;12732403;23;20219;-85
2022/05/24 04:14:22;;;;;;;3.70;2.55;;;19.00;87.90;;;;;;12748337;23;20173;-85
2022/05/24 04:19:25;;;;;;;11.05;4.85;;;19.10;90.10;;;;;;12733840;23;20173;-85
2022/05/24 04:24:27;;;;;;;2.63;2.15;;;18.70;86.90;;;;;;12733683;23;20255;-84
2022/05/24 04:29:29;;;;;;;7.82;3.70;;;19.10;90.60;;;;;;12732316;23;20192;-85
2022/05/24 04:34:32;;;;;;;4.90;1.80;;;19.20;86.10;;;;;;12732271;23;20165;-85
2022/05/24 04:39:35;;;;;;;4.28;3.50;;;18.80;90.40;;;;;;12732977;23;20200;-85
2022/05/24 04:44:39;;;;;;;1.90;1.65;;;18.80;87.70;;;;;;12733236;23;20219;-85
2022/05/24 04:49:44;;;;;;;3.92;2.25;;;18.70;90.80;;;;;;12751357;23;20265;-85
2022/05/24 04:54:46;;;;;;;3.80;3.50;;;18.80;90.00;;;;;;12755372;23;20278;-85
2022/05/24 04:59:50;;;;;;;2.38;1.73;;;18.60;86.90;;;;;;12732717;23;20180;-85
2022/05/24 05:04:54;;;;;;;2.03;1.60;;;19.00;90.80;;;;;;12755083;23;20179;-85
2022/05/24 05:09:56;;;;;;;2.03;1.70;;;19.00;90.40;;;;;;12733199;23;20192;-85
2022/05/24 05:14:59;;;;;;;3.95;3.63;;;19.20;90.60;;;;;;12730331;23;20185;-85
2022/05/24 05:20:03;;;;;;;1.73;1.63;;;19.50;86.50;;;;;;12732172;23;20196;-85
2022/05/24 05:25:07;;;;;;;4.88;4.32;;;19.80;88.90;;;;;;12732854;23;20173;-85
2022/05/24 05:35:31;;;;;;;2.03;1.60;;;19.90;87.70;;;;;;12749824;23;20543;-85
2022/05/24 05:40:34;;;;;;;2.58;2.00;;;19.60;87.70;;;;;;12731702;23;20168;-85
2022/05/24 05:45:37;;;;;;;5.28;3.13;;;19.70;88.30;;;;;;12740634;23;20251;-85
2022/05/24 05:50:44;;;;;;;2.50;2.30;;;19.60;84.90;;;;;;12729148;23;20259;-85
2022/05/24 05:55:46;;;;;;;4.88;3.80;;;19.50;88.50;;;;;;12730844;23;20640;-85
2022/05/24 06:00:49;;;;;;;4.82;3.60;;;19.40;86.40;;;;;;12731255;23;20219;-85
2022/05/24 06:05:53;;;;;;;3.97;3.63;;;19.40;87.00;;;;;;12732172;23;20485;-85
2022/05/24 06:10:56;;;;;;;2.25;2.08;;;19.60;87.40;;;;;;12731186;23;20196;-85
2022/05/24 06:15:59;;;;;;;3.90;2.10;;;19.70;88.20;;;;;;12728723;23;20181;-84
2022/05/24 06:21:01;;;;;;;2.13;1.90;;;19.80;86.60;;;;;;12728119;23;20200;-85
2022/05/24 06:26:04;;;;;;;6.05;3.72;;;19.90;87.20;;;;;;12704864;23;20207;-84
2022/05/24 06:31:08;;;;;;;6.05;4.28;;;19.80;86.00;;;;;;12728537;23;20261;-85
2022/05/24 06:36:11;;;;;;;7.97;4.32;;;19.40;86.00;;;;;;12729378;23;20192;-85
2022/05/24 06:41:14;;;;;;;3.90;3.22;;;19.70;85.60;;;;;;12732711;23;20220;-85
2022/05/24 06:46:18;;;;;;;2.10;1.80;;;19.90;85.90;;;;;;12730522;23;20191;-85
2022/05/24 06:51:22;;;;;;;2.33;1.42;;;19.60;87.70;;;;;;12730487;23;20215;-84
2022/05/24 06:56:24;;;;;;;3.85;3.33;;;19.90;87.60;;;;;;12748924;23;20507;-85
2022/05/24 07:06:48;;;;;;;9.25;5.10;;;20.00;87.20;;;;;;12730900;23;20251;-85
2022/05/24 07:11:50;;;;;;;5.30;3.95;;;20.00;85.50;;;;;;12728013;23;20235;-86
2022/05/24 07:16:53;;;;;;;4.45;3.65;;;19.90;84.50;;;;;;12730698;23;20172;-85
2022/05/24 07:21:55;;;;;;;6.03;4.03;;;19.80;86.80;;;;;;12721180;23;20200;-85
2022/05/24 07:26:57;;;;;;;3.13;2.92;;;20.00;86.00;;;;;;12725911;23;20721;-85
2022/05/24 07:32:01;;;;;;;6.28;3.00;;;19.90;86.70;;;;;;12727454;23;20243;-85
2022/05/24 07:37:06;;;;;;;2.88;2.67;;;20.10;86.40;;;;;;12726297;23;20169;-85
2022/05/24 07:47:30;;;;;;;3.97;3.60;;;20.20;86.10;;;;;;12729510;23;20725;-84
2022/05/24 07:52:33;;;;;;;2.90;2.22;;;20.40;85.20;;;;;;12750910;23;20188;-85
2022/05/24 07:57:38;;;;;;;6.22;5.38;;;20.60;85.20;;;;;;12735431;23;20164;-85
2022/05/24 08:02:40;;;;;;;2.80;2.53;;;20.50;84.30;;;;;;12734544;23;20184;-84
2022/05/24 08:07:45;;;;;;;2.50;2.20;;;20.50;85.20;;;;;;12751111;23;20555;-85
2022/05/24 08:12:47;;;;;;;3.67;3.38;;;20.90;84.10;;;;;;12729429;23;20200;-85
2022/05/24 08:17:50;;;;;;;3.00;2.60;;;20.70;84.40;;;;;;12727214;23;20583;-85
2022/05/24 08:22:53;;;;;;;3.80;2.78;;;20.60;84.10;;;;;;12736726;23;20201;-85
2022/05/24 08:27:55;;;;;;;2.55;2.35;;;20.80;83.90;;;;;;12729293;23;20172;-85
2022/05/24 08:32:58;;;;;;;2.67;2.47;;;20.80;83.80;;;;;;12730495;23;20189;-84
2022/05/24 08:38:03;;;;;;;1.65;1.55;;;20.80;83.60;;;;;;12730575;23;20196;-85
2022/05/24 08:43:27;;;;;;;5.38;3.25;;;20.90;83.30;;;;;;12729613;23;20220;-85
2022/05/24 08:48:51;;;;;;;2.08;1.88;;;21.00;82.90;;;;;;12746919;23;20259;-84
2022/05/24 08:54:15;;;;;;;2.40;2.20;;;21.00;83.40;;;;;;12728423;23;20231;-85
2022/05/24 08:59:26;;;;;;;3.90;3.50;;;21.10;82.60;;;;;;12729194;23;20566;-85
2022/05/24 09:04:30;;;;;;;2.67;2.47;;;21.20;83.00;;;;;;12752786;23;20579;-85
2022/05/24 09:09:43;;;;;;;2.33;2.10;;;21.20;82.60;;;;;;12728878;23;20247;-85
2022/05/24 09:15:14;;;;;;;7.28;6.68;;;21.20;82.10;;;;;;12743260;23;20172;-84
2022/05/24 09:20:28;;;;;;;8.23;6.15;;;20.40;87.90;;;;;;12728576;23;20223;-84
2022/05/24 09:25:31;;;;;;;8.15;6.95;;;20.40;87.40;;;;;;12727171;23;20515;-85
2022/05/24 09:30:42;;;;;;;2.30;2.10;;;20.00;90.40;;;;;;12727566;23;20578;-85
2022/05/24 09:35:45;;;;;;;2.65;2.38;;;20.00;88.40;;;;;;12727552;23;20196;-84
2022/05/24 09:40:58;;;;;;;8.32;6.95;;;20.60;85.80;;;;;;12744713;23;20172;-84
2022/05/24 09:46:07;;;;;;;4.45;3.10;;;20.90;86.50;;;;;;12735645;23;20227;-85
2022/05/24 09:51:12;;;;;;;9.18;4.93;;;20.10;88.60;;;;;;12743598;23;20192;-85
2022/05/24 09:56:33;;;;;;;4.43;3.92;;;20.50;90.80;;;;;;12727343;23;20219;-84
2022/05/24 10:01:43;;;;;;;15.30;9.05;;;20.60;91.60;;;;;;12732522;23;20235;-85
2022/05/24 10:06:58;;;;;;;7.78;4.88;;;19.40;94.90;;;;;;12743869;23;20199;-85
2022/05/24 10:12:48;;;;;;;13.23;9.88;;;19.20;96.80;;;;;;12744909;23;20227;-85
2022/05/24 10:17:57;;;;;;;11.00;9.32;;;19.00;99.30;;;;;;12481300;23;20243;-84
2022/05/24 10:23:13;;;;;;;16.27;11.48;;;19.20;98.50;;;;;;12481720;23;20243;-85
2022/05/24 10:28:25;;;;;;;15.25;11.45;;;18.70;99.90;;;;;;12457158;23;20186;-86
2022/05/24 10:39:48;;;;;;;12.85;10.52;;;18.40;99.90;;;;;;12455971;23;20973;-86
2022/05/24 10:45:20;;;;;;;12.13;9.63;;;18.60;99.90;;;;;;12457701;23;20888;-86
2022/05/24 10:50:41;;;;;;;16.00;11.45;;;18.40;99.90;;;;;;12498206;23;20195;-86
2022/05/24 10:56:02;;;;;;;10.60;8.77;;;18.60;99.90;;;;;;12746219;23;20211;-86
2022/05/24 11:01:27;;;;;;;13.43;11.90;;;19.40;99.90;;;;;;12703859;23;20184;-85
2022/05/24 11:06:37;;;;;;;14.90;13.38;;;19.10;99.90;;;;;;12752087;23;20206;-86
2022/05/24 11:12:02;;;;;;;16.98;13.52;;;19.60;99.90;;;;;;12746681;23;20247;-86
2022/05/24 11:17:08;;;;;;;22.20;14.07;;;19.80;99.90;;;;;;12728969;23;20527;-86
2022/05/24 11:22:23;;;;;;;18.65;14.20;;;20.20;99.90;;;;;;12738203;23;20255;-85
2022/05/24 11:27:33;;;;;;;16.42;13.85;;;20.40;99.90;;;;;;12748032;23;20191;-86
2022/05/24 11:32:52;;;;;;;14.93;13.30;;;20.40;99.90;;;;;;12731137;23;20211;-84
2022/05/24 11:38:09;;;;;;;16.13;14.45;;;20.60;99.90;;;;;;12746300;23;20566;-86
2022/05/24 11:43:34;;;;;;;13.55;12.10;;;21.00;99.90;;;;;;12727435;23;20526;-86
2022/05/24 11:48:52;;;;;;;14.15;12.00;;;21.30;99.90;;;;;;12730447;23;20176;-86
2022/05/24 11:53:55;;;;;;;17.73;14.10;;;21.60;99.90;;;;;;12728188;23;20188;-86
2022/05/24 11:59:04;;;;;;;19.65;14.60;;;21.40;99.90;;;;;;12729922;23;20188;-86
2022/05/24 12:10:13;;;;;;;15.90;12.65;;;21.70;99.90;;;;;;12744891;23;20180;-86
2022/05/24 12:15:47;;;;;;;8.30;7.50;;;21.50;99.90;;;;;;12717194;23;20185;-86
2022/05/24 12:20:49;;;;;;;7.75;6.70;;;21.90;99.90;;;;;;12753064;23;20258;-86
2022/05/24 12:26:13;;;;;;;12.65;11.13;;;22.10;98.20;;;;;;12724959;23;20181;-86
2022/05/24 12:31:18;;;;;;;11.07;7.90;;;22.40;99.90;;;;;;12455068;23;112768;-86
2022/05/24 12:46:21;;;;;;;14.70;5.70;;;22.40;96.00;;;;;;10487608;27;20594;-86
2022/05/24 12:51:24;;;;;;;7.55;4.65;;;22.90;96.90;;;;;;10483253;28;20283;-86
2022/05/24 12:56:26;;;;;;;5.15;4.57;;;22.90;95.20;;;;;;10483947;28;20683;-85
2022/05/24 13:01:31;;;;;;;11.55;9.63;;;22.70;94.80;;;;;;10494965;28;20726;-85
2022/05/24 13:06:37;;;;;;;12.43;10.73;;;22.40;99.90;;;;;;10525000;28;20229;-86
2022/05/24 13:11:40;;;;;;;10.35;7.70;;;22.50;99.80;;;;;;10530423;28;20225;-86
2022/05/24 13:16:42;;;;;;;4.85;4.45;;;22.30;97.70;;;;;;10489049;28;20246;-86
2022/05/24 13:21:51;;;;;;;7.15;5.63;;;22.00;95.50;;;;;;10488354;28;20256;-86
2022/05/24 13:27:03;;;;;;;12.13;8.75;;;21.90;96.90;;;;;;10539874;28;20229;-86
2022/05/24 13:37:52;;;;;;;13.82;7.65;;;21.70;99.90;;;;;;10479841;28;20378;-86
2022/05/24 13:42:57;;;;;;;4.15;3.85;;;21.40;99.90;;;;;;10507486;28;20324;-86
2022/05/24 13:48:20;;;;;;;4.97;4.55;;;21.10;98.80;;;;;;10482042;28;20505;-85
2022/05/24 13:53:39;;;;;;;5.10;4.70;;;21.40;96.90;;;;;;10473373;28;20230;-85
2022/05/24 13:58:49;;;;;;;7.40;4.57;;;21.50;98.20;;;;;;10452891;28;20236;-85
2022/05/24 14:04:09;;;;;;;11.48;8.55;;;21.60;95.70;;;;;;10492451;28;20345;-86
2022/05/24 14:09:11;;;;;;;7.18;6.07;;;21.70;98.20;;;;;;10449753;28;20284;-86
2022/05/24 14:14:13;;;;;;;5.28;4.80;;;21.80;95.00;;;;;;10466364;28;20199;-86
2022/05/24 14:19:16;;;;;;;10.98;9.85;;;22.00;94.10;;;;;;10458034;28;20256;-85
2022/05/24 14:24:19;;;;;;;6.30;5.70;;;22.10;97.70;;;;;;10456435;28;20250;-86
2022/05/24 14:29:23;;;;;;;5.85;5.35;;;22.30;95.90;;;;;;10455864;28;20230;-85
2022/05/24 14:34:27;;;;;;;19.67;15.95;;;22.20;95.20;;;;;;10139103;28;10000648;-86
2022/05/24 14:39:30;;;;;;;4.20;3.80;;;22.20;99.90;;;;;;10490598;28;20291;-85
2022/05/24 14:44:35;;;;;;;4.63;4.22;;;22.10;94.90;;;;;;10453467;28;20332;-86
2022/05/24 14:49:38;;;;;;;14.82;11.57;;;22.00;95.70;;;;;;10453507;28;20233;-86
2022/05/24 14:54:47;;;;;;;15.45;12.40;;;22.10;99.90;;;;;;10491294;28;20237;-86
2022/05/24 14:59:51;;;;;;;3.90;3.60;;;21.90;99.90;;;;;;10477150;28;20281;-86
2022/05/24 15:04:54;;;;;;;8.48;7.65;;;21.80;95.30;;;;;;10495137;28;20250;-86
2022/05/24 15:15:23;;;;;;;6.82;5.68;;;21.90;99.90;;;;;;10452344;28;20234;-86
2022/05/24 15:20:26;;;;;;;12.50;11.20;;;21.90;96.50;;;;;;10444804;28;20370;-86
2022/05/24 15:25:34;;;;;;;4.20;3.90;;;22.10;97.40;;;;;;10448331;28;20317;-87
2022/05/24 15:30:37;;;;;;;10.82;9.35;;;22.20;93.90;;;;;;10440770;28;20257;-85
2022/05/24 15:35:45;;;;;;;4.90;4.50;;;22.00;95.20;;;;;;10446628;28;20219;-85
2022/05/24 15:40:48;;;;;;;4.95;4.55;;;21.90;94.60;;;;;;10452699;28;20740;-85
2022/05/24 15:45:52;;;;;;;7.85;5.68;;;21.80;93.90;;;;;;10457198;28;20266;-85
2022/05/24 15:50:54;;;;;;;8.13;7.32;;;21.60;97.80;;;;;;10449479;28;20280;-84
2022/05/24 15:56:00;;;;;;;15.88;12.25;;;21.60;99.90;;;;;;10445807;28;21246;-85
2022/05/24 16:01:04;;;;;;;10.05;7.35;;;21.50;99.90;;;;;;10464089;28;20274;-85
2022/05/24 16:11:30;;;;;;;25.60;17.65;;;21.50;99.90;;;;;;10447472;28;20286;-87
2022/05/24 16:16:36;;;;;;;20.92;18.33;;;21.50;99.90;;;;;;10484375;28;20242;-87
2022/05/24 16:21:41;;;;;;;21.08;17.77;;;21.00;99.90;;;;;;10455557;28;20269;-87
2022/05/24 16:26:43;;;;;;;25.30;19.20;;;20.60;99.90;;;;;;10471403;28;20277;-88
2022/05/24 16:31:46;;;;;;;23.25;17.63;;;20.50;99.90;;;;;;10487508;28;20273;-88
2022/05/24 16:36:49;;;;;;;21.05;16.80;;;20.50;99.90;;;;;;10473600;28;20280;-87
2022/05/24 16:41:51;;;;;;;20.15;17.00;;;20.40;99.90;;;;;;10473660;28;20284;-87
2022/05/24 16:46:53;;;;;;;24.40;19.17;;;20.30;99.90;;;;;;10462163;28;20250;-83
2022/05/24 16:52:06;;;;;;;21.27;18.98;;;20.10;99.90;;;;;;10474041;28;20226;-83
2022/05/24 17:02:31;;;;;;;24.20;19.40;;;19.40;99.90;;;;;;10452614;28;20245;-84
2022/05/24 17:07:33;;;;;;;27.90;20.90;;;19.00;99.90;;;;;;10473646;28;20230;-83
2022/05/24 17:12:41;;;;;;;23.20;19.38;;;18.40;99.90;;;;;;10491664;28;20252;-83
2022/05/24 17:17:46;;;;;;;27.35;21.98;;;18.80;99.90;;;;;;10448107;28;20238;-83
2022/05/24 17:22:50;;;;;;;25.25;20.40;;;18.00;99.90;;;;;;10464085;28;20254;-83
2022/05/24 17:27:53;;;;;;;25.70;21.85;;;17.90;99.90;;;;;;10472204;28;20279;-85
2022/05/24 17:33:04;;;;;;;27.23;21.55;;;17.70;99.90;;;;;;10466864;28;20273;-85
2022/05/24 17:38:07;;;;;;;24.05;20.20;;;17.40;99.90;;;;;;10456110;28;20239;-85
2022/05/24 17:43:13;;;;;;;27.37;21.57;;;17.20;99.90;;;;;;10510562;28;20315;-85
2022/05/24 17:48:20;;;;;;;25.80;21.03;;;17.10;99.90;;;;;;10486443;28;20238;-84
2022/05/24 17:53:23;;;;;;;32.77;24.27;;;16.90;99.90;;;;;;10488303;28;20237;-85
2022/05/24 17:58:25;;;;;;;27.17;21.73;;;16.80;99.90;;;;;;10512356;28;20234;-85
2022/05/24 18:03:28;;;;;;;33.30;24.77;;;16.80;99.90;;;;;;10512379;28;20249;-84
2022/05/24 18:08:32;;;;;;;31.70;24.97;;;16.80;99.90;;;;;;10484789;28;20677;-84
2022/05/24 18:13:35;;;;;;;35.27;26.07;;;16.80;99.90;;;;;;10495290;28;20632;-83
2022/05/24 18:18:38;;;;;;;28.80;24.87;;;;;;;;;;10511922;28;20263;-83
2022/05/24 18:23:49;;;;;;;22.73;19.17;;;16.70;99.90;;;;;;10492366;28;20270;-88
2022/05/24 18:34:31;;;;;;;26.70;22.87;;;16.80;99.90;;;;;;10449246;28;20246;-83
2022/05/24 18:39:34;;;;;;;28.90;23.33;;;16.60;99.90;;;;;;10420800;28;20798;-83
2022/05/24 18:44:37;;;;;;;28.03;22.70;;;16.50;99.90;;;;;;10416209;28;20347;-83
2022/05/24 18:49:40;;;;;;;30.63;22.93;;;16.40;99.90;;;;;;10400829;28;20227;-83
2022/05/24 18:54:43;;;;;;;30.87;23.47;;;16.40;99.90;;;;;;10419645;28;20296;-83
2022/05/24 18:59:46;;;;;;;31.37;25.33;;;16.30;99.90;;;;;;10406339;28;20235;-83
2022/05/24 19:04:48;;;;;;;30.80;25.03;;;16.30;99.90;;;;;;10411797;28;20267;-83
2022/05/24 19:09:55;;;;;;;31.00;26.23;;;16.30;99.90;;;;;;10438695;28;20238;-83
2022/05/24 19:14:59;;;;;;;35.77;26.57;;;16.10;99.90;;;;;;10465809;28;20229;-83
2022/05/24 19:20:02;;;;;;;39.67;27.23;;;15.90;99.90;;;;;;10479221;28;20685;-83
2022/05/24 19:25:06;;;;;;;34.23;26.40;;;15.80;99.90;;;;;;10445819;28;20255;-83
2022/05/24 19:30:09;;;;;;;33.70;26.17;;;15.70;99.90;;;;;;10441888;28;20284;-84
2022/05/24 19:35:12;;;;;;;32.63;26.90;;;15.60;99.90;;;;;;10433526;28;20235;-83
2022/05/24 19:45:36;;;;;;;30.37;26.20;;;15.60;99.90;;;;;;9739109;28;9999887;-84
2022/05/24 19:50:39;;;;;;;39.60;26.87;;;15.50;99.90;;;;;;10456466;28;20627;-84
2022/05/24 19:55:42;;;;;;;35.13;26.93;;;15.40;99.90;;;;;;10458985;28;20223;-84
2022/05/24 20:00:44;;;;;;;38.73;27.57;;;15.40;99.90;;;;;;10420002;28;20312;-83
2022/05/24 20:05:47;;;;;;;39.70;29.33;;;15.40;99.90;;;;;;10488362;28;20270;-84
2022/05/24 20:10:49;;;;;;;35.20;28.50;;;15.40;99.90;;;;;;10500838;28;20288;-84
2022/05/24 20:16:01;;;;;;;37.03;29.23;;;15.50;99.90;;;;;;10453971;28;20231;-84
2022/05/24 20:21:04;;;;;;;38.03;29.33;;;15.70;99.90;;;;;;10420619;28;20239;-84
2022/05/24 20:26:06;;;;;;;41.50;31.37;;;15.80;99.90;;;;;;10438809;28;20245;-84
2022/05/24 20:31:09;;;;;;;37.40;28.10;;;15.90;99.90;;;;;;10500547;28;20230;-84
2022/05/24 20:36:12;;;;;;;35.53;27.73;;;16.00;99.90;;;;;;10468352;28;20225;-84
2022/05/24 20:41:22;;;;;;;31.53;24.53;;;16.10;99.90;;;;;;10479937;28;20226;-84
2022/05/24 20:46:24;;;;;;;26.50;21.60;;;16.30;99.90;;;;;;10457649;28;20677;-84
2022/05/24 20:51:27;;;;;;;22.40;19.93;;;16.90;99.90;;;;;;10462082;28;20234;-84
2022/05/24 20:56:30;;;;;;;24.65;18.42;;;17.30;99.90;;;;;;10446014;28;20256;-84
2022/05/24 21:01:32;;;;;;;19.42;15.95;;;18.20;99.90;;;;;;10491484;28;20231;-84
2022/05/24 21:06:35;;;;;;;17.27;13.77;;;18.80;99.90;;;;;;10449541;28;20266;-84
2022/05/24 21:11:38;;;;;;;20.33;15.30;;;18.20;99.90;;;;;;10471745;28;20838;-84
2022/05/24 21:16:41;;;;;;;11.07;9.87;;;17.90;99.90;;;;;;10457447;28;20709;-84
2022/05/24 21:21:43;;;;;;;9.55;8.13;;;17.70;99.90;;;;;;10472329;28;20227;-84
2022/05/24 21:32:08;;;;;;;11.67;9.77;;;17.60;99.90;;;;;;10463006;28;20629;-84
2022/05/24 21:37:10;;;;;;;8.23;6.37;;;17.40;99.90;;;;;;10472309;28;20678;-84
2022/05/24 21:42:13;;;;;;;5.10;3.83;;;17.30;99.90;;;;;;10504676;28;20265;-84
2022/05/24 21:47:15;;;;;;;6.07;3.63;;;16.80;99.90;;;;;;10439698;28;20310;-85
2022/05/24 21:52:18;;;;;;;7.57;3.93;;;16.50;99.90;;;;;;10429608;28;20226;-84
2022/05/24 21:57:20;;;;;;;4.30;3.90;;;16.20;99.90;;;;;;10481620;28;20237;-85
2022/05/24 22:02:23;;;;;;;4.57;4.10;;;15.90;99.90;;;;;;10468800;28;20246;-85
2022/05/24 22:07:27;;;;;;;4.53;4.13;;;15.70;99.90;;;;;;10448333;28;20668;-85
2022/05/24 22:12:30;;;;;;;4.60;4.20;;;15.60;99.90;;;;;;10454964;28;20230;-85
2022/05/24 22:17:32;;;;;;;5.33;4.43;;;15.50;99.90;;;;;;10464003;28;20238;-85
2022/05/24 22:22:35;;;;;;;5.67;4.40;;;15.50;99.90;;;;;;10433145;28;20422;-85
2022/05/24 22:27:37;;;;;;;4.90;3.80;;;15.50;99.90;;;;;;10436641;28;20249;-85
2022/05/24 22:32:40;;;;;;;4.23;3.87;;;15.60;99.90;;;;;;10460463;28;20238;-84
2022/05/24 22:37:43;;;;;;;3.47;3.17;;;15.60;99.90;;;;;;10460107;28;20236;-83
2022/05/24 22:42:45;;;;;;;3.80;3.50;;;15.70;99.90;;;;;;10494184;28;20226;-84
2022/05/24 22:47:49;;;;;;;3.97;3.57;;;15.30;99.90;;;;;;10462204;28;20692;-84
2022/05/24 22:52:53;;;;;;;4.30;3.90;;;15.00;99.90;;;;;;10464504;28;20268;-86
2022/05/24 22:57:56;;;;;;;4.40;4.00;;;14.90;99.90;;;;;;10465941;28;20230;-84
2022/05/24 23:02:58;;;;;;;4.27;3.43;;;14.70;99.90;;;;;;10450474;28;20273;-84
2022/05/24 23:08:01;;;;;;;4.43;4.03;;;14.60;99.90;;;;;;10422644;28;20856;-84
2022/05/24 23:13:04;;;;;;;4.17;3.73;;;14.40;99.90;;;;;;10451768;28;20231;-83
2022/05/24 23:18:07;;;;;;;6.37;3.67;;;14.40;99.90;;;;;;10478174;28;20282;-84
2022/05/24 23:23:11;;;;;;;3.77;3.40;;;14.30;99.90;;;;;;10508232;28;20680;-84
2022/05/24 23:28:15;;;;;;;4.00;3.63;;;14.20;99.90;;;;;;10492875;28;20305;-83
2022/05/24 23:33:18;;;;;;;6.30;4.23;;;14.20;99.90;;;;;;10460520;28;20253;-84
2022/05/24 23:38:20;;;;;;;7.87;7.07;;;14.30;99.90;;;;;;10467470;28;20688;-83
2022/05/24 23:43:23;;;;;;;8.20;4.53;;;14.40;99.90;;;;;;10455093;28;20271;-84
2022/05/24 23:48:26;;;;;;;4.80;4.40;;;14.40;99.90;;;;;;10493125;28;20282;-83
2022/05/24 23:53:29;;;;;;;3.60;3.30;;;14.40;99.90;;;;;;10491848;28;20659;-84
2022/05/24 23:58:32;;;;;;;5.00;4.40;;;14.30;99.90;;;;;;10490269;28;20227;-84
